Time;durP1;ratioP1;P1;durP2;ratioP2;P2;SDS_P1;SDS_P2;PMS_P1;PMS_P2;Temp;Humidity;BMP_temperature;BMP_pressure;BME280_temperature;BME280_humidity;BME280_pressure;Samples;Min_cycle;Max_cycle;Signal;HPM_P1;HPM_P2
2021/09/18 00:01:38;;;;;;;3.25;2.30;;;;;;;19.24;86.23;99647.72;4916812;29;20048;-84
2021/09/18 00:04:05;;;;;;;8.40;3.25;;;;;;;19.34;84.96;99653.78;4917350;29;20051;-83
2021/09/18 00:06:33;;;;;;;5.75;2.78;;;;;;;19.51;82.44;99654.78;4917049;29;20131;-84
2021/09/18 00:09:00;;;;;;;7.20;2.33;;;;;;;19.58;80.47;99662.97;4916252;29;20051;-86
2021/09/18 00:11:26;;;;;;;8.50;2.42;;;;;;;19.71;79.38;99660.84;4918621;29;20044;-86
2021/09/18 00:13:53;;;;;;;3.55;2.50;;;;;;;19.76;79.80;99666.50;4917141;29;20052;-83
2021/09/18 00:16:20;;;;;;;4.38;2.28;;;;;;;19.75;78.22;99669.28;4917607;29;20055;-83
2021/09/18 00:18:47;;;;;;;6.45;2.50;;;;;;;19.75;77.87;99672.75;4917973;29;20147;-81
2021/09/18 00:21:14;;;;;;;2.58;2.00;;;;;;;19.91;76.97;99671.25;4917306;29;20044;-81
2021/09/18 00:23:41;;;;;;;4.60;2.10;;;;;;;19.88;75.97;99673.22;4917030;29;20127;-83
2021/09/18 00:26:08;;;;;;;7.53;2.20;;;;;;;19.91;75.45;99665.97;4917283;29;20048;-83
2021/09/18 00:28:35;;;;;;;3.30;2.47;;;;;;;19.94;75.12;99670.97;4917678;29;20047;-83
2021/09/18 00:31:02;;;;;;;8.07;2.38;;;;;;;19.87;75.81;99666.28;4918053;29;20040;-84
2021/09/18 00:33:29;;;;;;;5.00;2.15;;;;;;;19.80;76.98;99665.19;4917676;29;20115;-84
2021/09/18 00:35:55;;;;;;;9.32;3.30;;;;;;;19.57;79.05;99663.94;4917553;29;20055;-84
2021/09/18 00:38:22;;;;;;;6.82;2.17;;;;;;;19.48;79.83;99662.19;4917454;29;20048;-86
2021/09/18 00:40:49;;;;;;;7.50;2.60;;;;;;;19.37;80.57;99665.84;4918310;29;20103;-85
2021/09/18 00:43:16;;;;;;;5.93;2.80;;;;;;;19.34;80.49;99660.88;4917525;29;20043;-85
2021/09/18 00:45:42;;;;;;;3.10;2.15;;;;;;;19.35;79.60;99658.06;4918278;29;20048;-85
2021/09/18 00:48:09;;;;;;;3.47;2.50;;;;;;;19.31;79.83;99659.34;4920250;29;20044;-85
2021/09/18 00:50:36;;;;;;;4.30;1.98;;;;;;;19.42;78.03;99668.06;4921822;29;20044;-82
2021/09/18 00:53:03;;;;;;;7.00;2.65;;;;;;;19.45;79.10;99663.31;4916720;29;20051;-80
2021/09/18 00:55:31;;;;;;;7.15;2.50;;;;;;;19.36;79.32;99659.75;4917321;29;20067;-82
2021/09/18 00:57:57;;;;;;;9.00;2.70;;;;;;;19.38;79.22;99662.22;4916575;29;20082;-80
2021/09/18 01:00:25;;;;;;;7.43;1.95;;;;;;;19.29;79.74;99656.03;4917339;29;20054;-81
2021/09/18 01:02:52;;;;;;;8.73;3.38;;;;;;;19.18;80.41;99656.22;4917363;29;20048;-80
2021/09/18 01:05:19;;;;;;;5.68;2.78;;;;;;;19.05;80.85;99650.44;4916693;29;20119;-82
2021/09/18 01:07:47;;;;;;;3.58;2.15;;;;;;;19.03;80.29;99657.69;4917454;29;20052;-79
2021/09/18 01:10:14;;;;;;;6.63;2.20;;;;;;;18.97;81.20;99652.97;4917020;29;20052;-80
2021/09/18 01:13:04;;;;;;;2.65;2.00;;;;;;;19.06;79.66;99649.44;4915923;29;20056;-82
2021/09/18 01:15:33;;;;;;;3.60;1.77;;;;;;;19.09;80.13;99647.34;4917157;29;20056;-81
2021/09/18 01:18:01;;;;;;;25.35;3.00;;;;;;;19.09;79.85;99649.16;4917170;29;20040;-85
2021/09/18 01:20:29;;;;;;;2.67;1.73;;;;;;;19.00;81.10;99658.78;4917712;29;20096;-84
2021/09/18 01:22:57;;;;;;;6.60;2.58;;;;;;;18.88;81.15;99652.03;4917457;29;20040;-84
2021/09/18 01:25:26;;;;;;;5.40;2.50;;;;;;;18.88;80.46;99648.56;4917000;29;20044;-84
2021/09/18 01:27:53;;;;;;;5.68;2.60;;;;;;;18.84;80.65;99662.03;4917628;29;20064;-85
2021/09/18 01:30:25;;;;;;;5.15;2.25;;;;;;;18.89;80.04;99658.13;4917531;29;20052;-84
2021/09/18 01:32:53;;;;;;;11.27;2.97;;;;;;;18.93;80.13;99660.34;4918822;29;20040;-84
2021/09/18 01:35:20;;;;;;;8.15;2.60;;;;;;;19.03;80.85;99666.44;4921920;29;20040;-85
2021/09/18 01:37:47;;;;;;;6.03;2.75;;;;;;;18.93;83.77;99656.88;4920704;29;20107;-84
2021/09/18 01:40:22;;;;;;;6.25;3.92;;;;;;;18.91;86.94;99661.44;4920689;29;20124;-84
2021/09/18 01:42:50;;;;;;;5.90;2.60;;;;;;;18.97;83.46;99663.53;4920420;29;20036;-84
2021/09/18 01:45:20;;;;;;;3.97;2.13;;;;;;;18.95;83.13;99657.56;4921091;29;20048;-83
2021/09/18 01:47:50;;;;;;;4.20;2.33;;;;;;;18.89;83.02;99660.78;4920318;29;20399;-82
2021/09/18 01:50:44;;;;;;;5.78;2.47;;;;;;;18.85;82.82;99657.56;4920978;29;20044;-82
2021/09/18 01:53:13;;;;;;;4.32;3.13;;;;;;;18.72;86.83;99652.63;4920201;29;20056;-82
2021/09/18 01:55:42;;;;;;;8.57;3.70;;;;;;;18.61;87.47;99649.28;4920973;29;20040;-82
2021/09/18 01:58:09;;;;;;;3.58;2.83;;;;;;;18.57;87.68;99648.72;4920309;29;20237;-82
2021/09/18 02:00:45;;;;;;;4.82;3.15;;;;;;;18.77;84.86;99658.31;4920762;29;20452;-82
2021/09/18 02:03:12;;;;;;;5.25;2.50;;;;;;;18.75;84.29;99660.28;4920609;29;20422;-82
2021/09/18 02:05:39;;;;;;;5.50;2.35;;;;;;;18.71;83.48;99653.59;4921046;29;20047;-82
2021/09/18 02:08:06;;;;;;;8.52;2.70;;;;;;;18.50;84.49;99658.19;4920517;29;20055;-83
2021/09/18 02:10:33;;;;;;;4.05;2.08;;;;;;;18.16;87.31;99656.00;4920200;29;20052;-82
2021/09/18 02:13:02;;;;;;;5.75;2.60;;;;;;;18.23;86.75;99662.41;4919063;29;20131;-83
2021/09/18 02:15:29;;;;;;;6.03;2.53;;;;;;;18.30;85.72;99663.50;4920201;29;20037;-83
2021/09/18 02:17:56;;;;;;;8.75;2.30;;;;;;;18.55;84.84;99671.81;4932825;29;20044;-83
2021/09/18 02:20:26;;;;;;;8.27;5.05;;;;;;;18.29;88.31;99672.38;4934907;29;20510;-82
2021/09/18 02:22:53;;;;;;;5.38;4.82;;;;;;;18.22;90.71;99673.09;4925005;29;20091;-81
2021/09/18 02:25:20;;;;;;;9.15;4.97;;;;;;;18.41;89.64;99673.06;4919760;29;20095;-83
2021/09/18 02:27:47;;;;;;;9.70;7.40;;;;;;;18.22;94.09;99671.28;4920416;29;20047;-84
2021/09/18 02:30:18;;;;;;;8.77;7.95;;;;;;;18.37;94.75;99671.66;4920495;29;20048;-82
2021/09/18 02:32:45;;;;;;;13.05;9.25;;;;;;;18.34;96.32;99674.63;4920082;29;20044;-83
2021/09/18 02:35:14;;;;;;;11.93;8.73;;;;;;;18.35;96.93;99672.81;4920401;29;20119;-82
2021/09/18 02:37:41;;;;;;;13.23;9.43;;;;;;;18.43;96.29;99672.91;4919658;29;20052;-83
2021/09/18 02:40:11;;;;;;;10.05;7.38;;;;;;;18.39;94.94;99668.91;4919725;29;20056;-83
2021/09/18 02:42:40;;;;;;;9.60;6.35;;;;;;;18.48;93.75;99655.72;4919794;29;20043;-83
2021/09/18 02:45:08;;;;;;;5.90;4.15;;;;;;;18.39;91.99;99656.56;4919433;29;20452;-83
2021/09/18 02:47:35;;;;;;;7.25;3.22;;;;;;;18.44;90.65;99659.59;4919516;29;20047;-83
2021/09/18 02:50:03;;;;;;;5.70;3.33;;;;;;;18.29;91.33;99661.00;4918556;29;20052;-83
2021/09/18 02:52:30;;;;;;;7.97;2.70;;;;;;;18.23;91.16;99653.66;4919267;29;20052;-83
2021/09/18 02:54:58;;;;;;;17.08;3.47;;;;;;;18.21;91.63;99652.94;4919677;29;20044;-83
2021/09/18 02:57:25;;;;;;;2.42;2.00;;;;;;;18.14;92.42;99657.13;4919451;29;20521;-83
2021/09/18 02:59:52;;;;;;;11.27;4.05;;;;;;;18.14;93.35;99651.84;4919340;29;20044;-83
2021/09/18 03:02:18;;;;;;;10.65;6.50;;;;;;;18.17;94.66;99648.94;4919531;29;20050;-83
2021/09/18 03:04:46;;;;;;;12.85;9.02;;;;;;;18.08;97.17;99655.03;4917809;29;20131;-83
2021/09/18 03:07:12;;;;;;;10.65;8.15;;;;;;;17.99;97.74;99656.69;4919392;29;20506;-83
2021/09/18 03:09:39;;;;;;;12.57;7.68;;;;;;;17.75;100.00;99657.94;4919210;29;20419;-83
2021/09/18 03:12:06;;;;;;;8.55;6.70;;;;;;;17.95;98.20;99647.38;4919111;29;20123;-82
2021/09/18 03:14:33;;;;;;;6.93;6.15;;;;;;;17.95;98.04;99650.88;4918988;29;20043;-83
2021/09/18 03:17:00;;;;;;;10.32;6.68;;;;;;;17.81;98.65;99651.28;4919141;29;20462;-83
2021/09/18 03:19:27;;;;;;;7.72;5.93;;;;;;;17.73;100.00;99665.13;4917316;29;20039;-82
2021/09/18 03:21:53;;;;;;;8.63;5.70;;;;;;;17.67;100.00;99649.00;4919284;29;20051;-83
2021/09/18 03:24:20;;;;;;;5.78;4.97;;;;;;;17.64;100.00;99652.75;4918877;29;20044;-83
2021/09/18 03:26:47;;;;;;;13.70;6.85;;;;;;;17.57;100.00;99654.25;4917905;29;20040;-83
2021/09/18 03:29:14;;;;;;;9.80;4.30;;;;;;;17.53;100.00;99651.06;4917482;29;20052;-82
2021/09/18 03:31:42;;;;;;;7.35;4.93;;;;;;;17.48;100.00;99655.91;4918571;29;20045;-82
2021/09/18 03:34:09;;;;;;;7.38;4.45;;;;;;;17.48;100.00;99660.34;4918813;29;20067;-81
2021/09/18 03:36:36;;;;;;;9.45;6.63;;;;;;;17.44;100.00;99662.41;4917954;29;20116;-82
2021/09/18 03:39:03;;;;;;;7.82;4.90;;;;;;;17.48;100.00;99663.81;4928272;29;20099;-82
2021/09/18 03:41:30;;;;;;;5.45;3.90;;;;;;;17.50;99.59;99668.94;4932487;29;20044;-82
2021/09/18 03:43:57;;;;;;;4.90;3.20;;;;;;;17.44;99.91;99666.84;4926947;29;20403;-81
2021/09/18 03:46:24;;;;;;;6.70;3.78;;;;;;;17.26;100.00;99667.50;4920247;29;20103;-83
2021/09/18 03:48:50;;;;;;;4.78;3.35;;;;;;;17.31;100.00;99669.75;4918676;29;20048;-84
2021/09/18 03:51:17;;;;;;;12.35;3.95;;;;;;;17.31;100.00;99666.25;4918419;29;20119;-84
2021/09/18 03:53:44;;;;;;;6.38;3.63;;;;;;;17.33;100.00;99669.59;4918445;29;20080;-85
2021/09/18 03:56:11;;;;;;;12.95;3.83;;;;;;;17.37;99.75;99660.47;4918660;29;20032;-85
2021/09/18 03:58:38;;;;;;;4.80;3.65;;;;;;;17.42;99.77;99666.16;4918512;29;20055;-85
2021/09/18 04:01:05;;;;;;;8.48;4.35;;;;;;;17.49;99.16;99669.91;4918470;29;20052;-83
2021/09/18 04:03:32;;;;;;;7.25;4.93;;;;;;;17.40;99.12;99662.81;4919260;29;20047;-83
2021/09/18 04:05:59;;;;;;;10.05;4.13;;;;;;;17.31;99.18;99671.50;4918438;29;20046;-81
2021/09/18 04:08:26;;;;;;;5.18;3.97;;;;;;;17.35;100.00;99667.66;4920681;29;20071;-81
2021/09/18 04:10:52;;;;;;;11.70;5.88;;;;;;;17.60;98.27;99674.25;4926645;29;20051;-81
2021/09/18 04:13:19;;;;;;;9.27;5.85;;;;;;;17.79;96.87;99674.31;4919465;29;20040;-83
2021/09/18 04:15:46;;;;;;;11.63;7.28;;;;;;;17.94;96.29;99672.09;4919148;29;20052;-82
2021/09/18 04:18:13;;;;;;;9.18;7.35;;;;;;;17.99;96.71;99675.16;4918583;29;20119;-83
2021/09/18 04:20:40;;;;;;;13.27;7.75;;;;;;;17.91;95.96;99675.03;4918320;29;20079;-82
2021/09/18 04:23:07;;;;;;;8.07;4.93;;;;;;;18.08;94.35;99678.78;4918366;29;20040;-82
2021/09/18 04:25:34;;;;;;;8.60;4.65;;;;;;;18.10;93.57;99676.81;4918120;29;20103;-82
2021/09/18 04:28:00;;;;;;;7.50;6.25;;;;;;;18.06;94.73;99681.56;4918081;29;20055;-82
2021/09/18 04:30:27;;;;;;;13.07;7.10;;;;;;;18.13;94.98;99680.03;4918659;29;20055;-82
2021/09/18 04:32:54;;;;;;;13.43;8.02;;;;;;;18.19;96.41;99676.84;4918170;29;20491;-83
2021/09/18 04:35:21;;;;;;;11.27;8.98;;;;;;;18.33;95.94;99686.97;4918483;29;20127;-83
2021/09/18 04:37:48;;;;;;;14.10;9.57;;;;;;;18.40;96.20;99683.78;4918100;29;20058;-82
2021/09/18 04:40:17;;;;;;;16.02;10.98;;;;;;;18.36;97.64;99680.56;4917498;29;20131;-83
2021/09/18 04:42:44;;;;;;;15.57;12.15;;;;;;;18.40;98.37;99678.50;4913639;29;20355;-83
2021/09/18 04:45:11;;;;;;;20.85;15.93;;;;;;;18.46;99.43;99676.13;4913660;29;20127;-84
2021/09/18 04:47:38;;;;;;;25.60;18.08;;;;;;;18.61;99.70;99676.53;4917490;29;20146;-83
2021/09/18 04:50:05;;;;;;;25.25;17.45;;;;;;;18.66;99.38;99684.84;4918249;29;20143;-83
2021/09/18 04:52:32;;;;;;;29.42;19.13;;;;;;;18.72;99.32;99689.59;4917508;29;20124;-82
2021/09/18 04:54:59;;;;;;;24.52;14.38;;;;;;;18.74;98.66;99681.50;4918192;29;20067;-85
2021/09/18 04:57:26;;;;;;;32.40;18.00;;;;;;;18.72;99.37;99676.38;4917295;29;20115;-82
2021/09/18 04:59:53;;;;;;;24.90;18.42;;;;;;;18.83;99.94;99670.94;4916786;29;20044;-83
2021/09/18 05:02:20;;;;;;;37.95;25.23;;;;;;;18.78;100.00;99669.69;4913641;29;20036;-79
2021/09/18 05:04:47;;;;;;;39.13;25.05;;;;;;;18.79;100.00;99674.81;4908644;29;20036;-83
2021/09/18 05:07:14;;;;;;;37.15;25.65;;;;;;;18.93;100.00;99673.56;4914345;29;20551;-85
2021/09/18 05:09:46;;;;;;;57.30;34.47;;;;;;;18.60;100.00;99677.50;4915455;29;20123;-87
2021/09/18 05:12:13;;;;;;;62.53;38.97;;;;;;;18.65;100.00;99672.63;4921791;29;20044;-83
2021/09/18 05:14:40;;;;;;;68.47;35.75;;;;;;;18.65;100.00;99677.91;4917084;29;20445;-82
2021/09/18 05:17:06;;;;;;;56.92;36.13;;;;;;;18.94;100.00;99684.94;4920646;29;20506;-85
2021/09/18 05:19:34;;;;;;;44.63;26.30;;;;;;;18.75;100.00;99693.72;4921043;29;20040;-86
2021/09/18 05:22:01;;;;;;;42.55;24.23;;;;;;;18.94;100.00;99693.69;4932654;29;20048;-88
2021/09/18 05:24:48;;;;;;;58.13;27.35;;;;;;;19.09;100.00;99705.47;4928385;29;20051;-87
2021/09/18 05:27:15;;;;;;;44.97;24.92;;;;;;;19.04;100.00;99698.94;4922186;29;20496;-81
2021/09/18 05:29:44;;;;;;;36.60;22.27;;;;;;;18.87;100.00;99713.75;4914401;29;20052;-80
2021/09/18 05:32:11;;;;;;;25.92;16.92;;;;;;;18.93;98.75;99715.81;4926310;29;20048;-79
2021/09/18 05:34:40;;;;;;;26.33;16.90;;;;;;;18.98;96.19;99707.47;4927194;29;20096;-79
2021/09/18 05:37:07;;;;;;;21.77;16.77;;;;;;;18.96;94.77;99717.31;4930319;29;20044;-81
2021/09/18 05:39:43;;;;;;;26.15;16.58;;;;;;;18.79;95.11;99719.72;4930086;29;20092;-85
2021/09/18 05:42:10;;;;;;;22.95;15.25;;;;;;;19.13;94.01;99724.50;4933171;29;20040;-79
2021/09/18 05:44:37;;;;;;;21.45;15.35;;;;;;;19.30;92.70;99718.47;4933789;29;20045;-82
2021/09/18 05:47:03;;;;;;;25.55;17.95;;;;;;;19.10;94.73;99716.88;4930667;29;20032;-82
2021/09/18 05:49:30;;;;;;;36.88;23.92;;;;;;;19.33;94.11;99726.13;4918147;29;20048;-79
2021/09/18 05:51:57;;;;;;;35.35;22.23;;;;;;;19.35;94.48;99729.44;4916098;29;20582;-78
2021/09/18 05:54:25;;;;;;;35.35;21.98;;;;;;;19.40;94.16;99723.72;4914612;29;20056;-79
2021/09/18 05:56:51;;;;;;;34.92;23.23;;;;;;;19.57;93.70;99727.38;4914742;29;20108;-79
2021/09/18 05:59:18;;;;;;;32.90;24.25;;;;;;;19.52;93.78;99734.94;4913621;29;20044;-79
2021/09/18 06:01:46;;;;;;;38.55;24.55;;;;;;;19.58;95.16;99735.16;4914030;29;20056;-78
2021/09/18 06:04:13;;;;;;;40.38;29.40;;;;;;;19.91;96.43;99729.44;4913676;29;20487;-79
2021/09/18 06:06:40;;;;;;;43.50;30.67;;;;;;;19.84;98.29;99730.03;4913881;29;20072;-79
2021/09/18 06:09:06;;;;;;;41.90;30.00;;;;;;;19.87;97.21;99737.69;4913471;29;20124;-78
2021/09/18 06:11:33;;;;;;;41.25;27.92;;;;;;;20.13;94.64;99737.81;4914196;29;20043;-78
2021/09/18 06:14:00;;;;;;;42.45;28.88;;;;;;;20.05;96.64;99731.59;4913172;29;20044;-78
2021/09/18 06:16:27;;;;;;;41.25;28.45;;;;;;;19.90;98.02;99728.63;4914907;29;20055;-78
2021/09/18 06:18:54;;;;;;;46.05;29.52;;;;;;;20.19;96.12;99736.38;4916999;29;20044;-78
2021/09/18 06:21:21;;;;;;;44.95;29.83;;;;;;;20.33;95.13;99730.53;4919161;29;20054;-78
2021/09/18 06:23:48;;;;;;;42.50;28.70;;;;;;;20.41;95.05;99730.63;4919535;29;20127;-78
2021/09/18 06:26:16;;;;;;;48.72;31.13;;;;;;;20.77;93.38;99727.94;4919374;29;20051;-78
2021/09/18 06:28:44;;;;;;;51.45;31.88;;;;;;;20.81;92.91;99723.16;4919865;29;20056;-78
2021/09/18 06:31:12;;;;;;;48.20;32.03;;;;;;;20.75;93.69;99734.38;4919094;29;20044;-78
2021/09/18 06:33:39;;;;;;;47.13;31.65;;;;;;;20.52;95.84;99734.06;4920163;29;20364;-78
2021/09/18 06:36:06;;;;;;;49.75;30.35;;;;;;;20.58;95.67;99728.13;4919413;29;20048;-78
2021/09/18 06:38:33;;;;;;;46.22;29.73;;;;;;;20.39;97.76;99729.91;4919529;29;20051;-78
2021/09/18 06:41:00;;;;;;;50.08;32.38;;;;;;;20.53;97.61;99725.94;4919783;29;20131;-78
2021/09/18 06:43:33;;;;;;;49.83;34.08;;;;;;;20.40;99.29;99733.44;4919019;29;20075;-78
2021/09/18 06:46:00;;;;;;;60.17;33.53;;;;;;;20.28;99.60;99734.63;4919154;29;20051;-78
2021/09/18 06:48:27;;;;;;;53.72;33.45;;;;;;;20.53;98.80;99741.84;4919065;29;20049;-79
2021/09/18 06:50:54;;;;;;;50.15;31.92;;;;;;;20.85;95.94;99735.13;4919255;29;20044;-78
2021/09/18 06:53:21;;;;;;;51.90;32.45;;;;;;;21.24;91.84;99743.47;4918797;29;20079;-78
2021/09/18 06:55:48;;;;;;;52.88;31.77;;;;;;;20.81;96.50;99742.53;4919034;29;20499;-78
2021/09/18 06:58:15;;;;;;;49.70;31.20;;;;;;;21.23;93.35;99743.63;4918715;29;20087;-78
2021/09/18 07:00:42;;;;;;;50.67;32.78;;;;;;;21.38;91.67;99736.78;4919074;29;20448;-78
2021/09/18 07:03:09;;;;;;;44.90;28.42;;;;;;;20.84;96.18;99739.59;4918740;29;20060;-78
2021/09/18 07:05:36;;;;;;;46.35;31.40;;;;;;;20.89;97.50;99742.63;4918856;29;20119;-78
2021/09/18 07:08:03;;;;;;;45.15;31.25;;;;;;;21.33;91.76;99739.91;4918946;29;20045;-78
2021/09/18 07:10:31;;;;;;;48.40;32.88;;;;;;;21.39;90.85;99739.28;4917859;29;20044;-79
2021/09/18 07:12:58;;;;;;;43.00;29.77;;;;;;;21.70;90.05;99744.06;4918643;29;20555;-78
2021/09/18 07:15:26;;;;;;;40.47;29.52;;;;;;;21.10;92.88;99744.06;4918777;29;20044;-79
2021/09/18 07:17:53;;;;;;;49.83;31.30;;;;;;;21.16;93.31;99738.13;4918222;29;20056;-78
2021/09/18 07:20:21;;;;;;;44.20;31.40;;;;;;;21.36;91.18;99736.97;4917596;29;20522;-78
2021/09/18 07:22:47;;;;;;;45.08;29.00;;;;;;;21.23;90.76;99733.03;4918929;29;20044;-77
2021/09/18 07:25:14;;;;;;;44.60;30.15;;;;;;;21.07;92.92;99744.38;4918303;29;20464;-78
2021/09/18 07:27:41;;;;;;;42.38;32.95;;;;;;;21.39;90.55;99739.28;4918660;29;20052;-78
2021/09/18 07:30:09;;;;;;;43.92;28.17;;;;;;;22.03;86.12;99736.19;4918503;29;20466;-77
2021/09/18 07:32:36;;;;;;;45.85;29.38;;;;;;;22.43;83.16;99744.25;4918568;29;20052;-78
2021/09/18 07:35:07;;;;;;;42.95;32.67;;;;;;;21.64;87.12;99742.06;4918630;29;20480;-78
2021/09/18 07:37:35;;;;;;;45.15;32.83;;;;;;;21.15;92.01;99745.25;4917732;29;20104;-78
2021/09/18 07:40:06;;;;;;;37.63;27.20;;;;;;;21.57;88.43;99743.66;4918562;29;20056;-78
2021/09/18 07:42:33;;;;;;;41.17;29.50;;;;;;;21.72;86.98;99742.06;4918004;29;20044;-78
2021/09/18 07:45:01;;;;;;;34.30;26.15;;;;;;;22.84;80.19;99748.72;4918652;29;20117;-78
2021/09/18 07:47:27;;;;;;;34.20;28.27;;;;;;;22.09;84.31;99748.81;4918322;29;20048;-78
2021/09/18 07:49:54;;;;;;;37.67;28.95;;;;;;;22.20;82.96;99752.00;4918203;29;20503;-78
2021/09/18 07:52:21;;;;;;;43.03;29.88;;;;;;;22.25;84.71;99764.78;4917688;29;20105;-78
2021/09/18 07:54:48;;;;;;;43.28;29.33;;;;;;;22.72;81.29;99761.50;4918367;29;20178;-78
2021/09/18 07:57:35;;;;;;;38.58;29.50;;;;;;;22.81;81.34;99768.50;4918051;29;20044;-79
2021/09/18 08:00:05;;;;;;;37.80;27.52;;;;;;;21.57;88.47;99763.09;4918093;29;20566;-79
2021/09/18 08:02:32;;;;;;;35.78;26.95;;;;;;;21.43;89.93;99769.78;4917869;29;20055;-78
2021/09/18 08:04:59;;;;;;;36.58;26.80;;;;;;;21.81;87.43;99775.59;4917939;29;20036;-78
2021/09/18 08:07:26;;;;;;;49.40;30.73;;;;;;;22.19;85.71;99765.44;4917883;29;20048;-79
2021/09/18 08:09:56;;;;;;;38.85;28.58;;;;;;;22.55;83.80;99773.13;4917304;29;20514;-78
2021/09/18 08:12:24;;;;;;;43.80;29.58;;;;;;;22.68;82.90;99774.28;4916520;29;20076;-78
2021/09/18 08:14:51;;;;;;;47.25;31.85;;;;;;;22.84;80.65;99773.44;4916435;29;20130;-78
2021/09/18 08:17:18;;;;;;;39.00;28.27;;;;;;;22.49;84.86;99767.50;4917844;29;20126;-78
2021/09/18 08:19:45;;;;;;;40.15;28.83;;;;;;;22.75;82.20;99770.00;4917220;29;20506;-78
2021/09/18 08:22:12;;;;;;;39.78;27.80;;;;;;;22.09;85.23;99770.03;4917502;29;20048;-78
2021/09/18 08:24:39;;;;;;;37.38;26.38;;;;;;;22.25;85.39;99767.44;4916850;29;20047;-78
2021/09/18 08:27:05;;;;;;;34.15;24.65;;;;;;;22.58;81.56;99768.31;4917392;29;20044;-78
2021/09/18 08:29:34;;;;;;;32.97;24.88;;;;;;;23.40;77.64;99765.59;4917695;29;20052;-79
2021/09/18 08:32:00;;;;;;;39.90;25.63;;;;;;;24.28;72.06;99773.34;4916662;29;20048;-78
2021/09/18 08:34:27;;;;;;;34.53;24.63;;;;;;;24.61;70.65;99773.13;4917525;29;20127;-78
2021/09/18 08:36:54;;;;;;;31.70;23.42;;;;;;;24.41;71.00;99770.97;4917050;29;20484;-78
2021/09/18 08:39:21;;;;;;;30.40;23.95;;;;;;;23.86;74.29;99774.56;4898972;29;20453;-79
2021/09/18 08:41:48;;;;;;;36.33;25.88;;;;;;;24.67;70.62;99772.44;4908698;29;20396;-78
2021/09/18 08:44:15;;;;;;;36.03;27.48;;;;;;;23.40;75.37;99774.41;4917825;29;20044;-78
2021/09/18 08:46:43;;;;;;;35.60;27.83;;;;;;;22.67;79.86;99777.94;4916993;29;20460;-78
2021/09/18 08:49:11;;;;;;;44.05;28.00;;;;;;;22.88;79.62;99777.47;4917220;29;20040;-78
2021/09/18 08:51:40;;;;;;;50.75;28.02;;;;;;;22.86;79.31;99782.09;4916834;29;20048;-78
2021/09/18 08:54:07;;;;;;;39.75;27.85;;;;;;;23.57;76.36;99774.34;4916396;29;20072;-77
2021/09/18 08:56:34;;;;;;;43.50;28.83;;;;;;;23.30;77.71;99770.28;4916585;29;20488;-78
2021/09/18 08:59:01;;;;;;;36.25;26.92;;;;;;;21.58;85.83;99764.75;4917173;29;20071;-78
2021/09/18 09:01:29;;;;;;;42.38;30.90;;;;;;;21.90;85.93;99769.34;4916974;29;20079;-77
2021/09/18 09:03:58;;;;;;;44.88;30.10;;;;;;;21.89;85.67;99774.78;4917040;29;20036;-78
2021/09/18 09:06:43;;;;;;;37.25;29.77;;;;;;;21.74;86.61;99769.28;4916944;29;20464;-78
2021/09/18 09:09:12;;;;;;;38.72;29.42;;;;;;;21.62;87.18;99770.53;4915965;29;20044;-77
2021/09/18 09:11:51;;;;;;;50.17;32.50;;;;;;;21.57;87.18;99767.53;4916766;29;20051;-79
2021/09/18 09:14:19;;;;;;;45.97;30.33;;;;;;;21.82;85.93;99764.00;4915609;29;20067;-79
2021/09/18 09:16:54;;;;;;;36.53;29.38;;;;;;;22.53;81.71;99762.69;4918377;29;20040;-78
2021/09/18 09:19:21;;;;;;;43.58;31.20;;;;;;;22.62;80.83;99768.81;4918977;29;20127;-78
2021/09/18 09:21:53;;;;;;;39.42;29.15;;;;;;;22.18;83.26;99761.13;4916334;29;20103;-78
2021/09/18 09:24:22;;;;;;;42.75;30.83;;;;;;;22.21;82.98;99756.34;4916408;29;20514;-78
2021/09/18 09:27:09;;;;;;;36.72;28.90;;;;;;;22.22;81.95;99763.31;4916228;29;20040;-77
2021/09/18 09:29:53;;;;;;;44.97;28.88;;;;;;;22.76;78.92;99765.50;4918228;29;20058;-82
2021/09/18 09:32:37;;;;;;;35.72;24.65;;;;;;;22.67;79.09;99775.28;4918996;29;20044;-83
2021/09/18 09:35:07;;;;;;;;;;;;;;;22.79;77.36;99770.47;4916615;29;20513;-82
2021/09/18 09:37:34;;;;;;;41.47;24.25;;;;;;;23.07;76.33;99767.50;4916864;29;19923;-85
2021/09/18 09:40:06;;;;;;;32.83;24.45;;;;;;;23.45;73.93;99765.91;4928281;29;20131;-78
2021/09/18 09:42:40;;;;;;;29.90;24.80;;;;;;;23.58;73.19;99768.84;4917235;29;20045;-79
2021/09/18 09:45:18;;;;;;;;;;;;;;;23.13;76.94;99774.81;4913828;29;20412;-79
2021/09/18 09:47:47;;;;;;;27.23;22.55;;;;;;;22.92;75.98;99773.50;4912956;29;19945;-79
2021/09/18 09:50:19;;;;;;;25.77;21.35;;;;;;;22.62;75.98;99779.44;4913731;29;20047;-79
2021/09/18 09:52:48;;;;;;;18.98;14.68;;;;;;;22.31;77.32;99777.41;4912532;29;20080;-79
2021/09/18 09:55:18;;;;;;;23.27;19.08;;;;;;;22.82;75.56;99775.47;4919367;29;20044;-79
2021/09/18 09:57:56;;;;;;;26.05;21.55;;;;;;;22.65;77.38;99771.97;4918811;29;20056;-80
2021/09/18 10:00:23;;;;;;;32.70;23.65;;;;;;;23.08;76.10;99770.00;4917365;29;20044;-82
2021/09/18 10:02:50;;;;;;;40.03;26.50;;;;;;;23.17;77.33;99768.13;4911726;29;20502;-79
2021/09/18 10:05:17;;;;;;;36.25;24.90;;;;;;;23.06;76.44;99766.66;4912610;29;20041;-78
2021/09/18 10:07:44;;;;;;;32.05;22.25;;;;;;;23.21;76.19;99767.63;4917162;29;20052;-80
2021/09/18 10:10:13;;;;;;;32.88;22.35;;;;;;;23.36;75.91;99765.09;4918243;29;20088;-79
2021/09/18 10:12:41;;;;;;;28.55;21.27;;;;;;;23.37;75.57;99764.09;4916147;29;20107;-78
2021/09/18 10:15:10;;;;;;;26.27;19.88;;;;;;;23.79;73.65;99769.13;4913993;29;20040;-77
2021/09/18 10:17:43;;;;;;;25.52;19.17;;;;;;;23.29;74.37;99766.78;4914353;29;20059;-77
2021/09/18 10:20:15;;;;;;;25.17;16.52;;;;;;;23.27;74.21;99766.09;4910989;29;20055;-77
2021/09/18 10:25:34;;;;;;;31.00;19.27;;;;;;;23.63;73.98;99757.72;4911115;29;20045;-76
2021/09/18 10:28:04;;;;;;;25.77;19.63;;;;;;;25.12;68.04;99754.72;4907715;29;20065;-78
2021/09/18 10:30:34;;;;;;;25.38;18.48;;;;;;;23.87;72.19;99757.63;4911775;29;20062;-78
2021/09/18 10:33:02;;;;;;;25.58;19.67;;;;;;;24.21;70.95;99759.09;4911113;29;20040;-78
2021/09/18 10:35:31;;;;;;;22.23;18.33;;;;;;;24.12;71.16;99750.31;4916472;29;20423;-79
2021/09/18 10:38:18;;;;;;;28.40;22.27;;;;;;;23.66;73.40;99752.06;4915247;29;20096;-81
2021/09/18 10:41:05;;;;;;;25.30;20.33;;;;;;;23.56;73.57;99757.56;4912832;29;20099;-77
2021/09/18 10:43:35;;;;;;;28.98;19.92;;;;;;;23.80;72.06;99759.31;4912297;29;20040;-78
2021/09/18 10:46:03;;;;;;;30.27;19.92;;;;;;;24.04;71.17;99756.53;4914220;29;20527;-78
2021/09/18 10:48:40;;;;;;;33.25;20.73;;;;;;;25.07;67.08;99753.41;4914903;29;20045;-78
2021/09/18 10:51:07;;;;;;;28.83;18.75;;;;;;;25.43;65.07;99749.22;4917473;29;20048;-82
2021/09/18 10:54:06;;;;;;;28.05;20.90;;;;;;;25.29;66.03;99750.84;4915168;29;20040;-79
2021/09/18 10:57:01;;;;;;;24.33;19.85;;;;;;;26.28;61.79;99745.94;4909551;29;20048;-77
2021/09/18 10:59:43;;;;;;;29.85;18.10;;;;;;;26.29;61.64;99744.91;4907735;29;20051;-77
2021/09/18 11:02:34;;;;;;;30.90;19.25;;;;;;;25.72;62.96;99748.34;4911746;29;20456;-78
2021/09/18 11:05:06;;;;;;;30.48;21.30;;;;;;;24.95;66.15;99744.19;4916216;29;20119;-78
2021/09/18 11:07:39;;;;;;;27.45;20.92;;;;;;;24.64;67.81;99746.97;4910913;29;20060;-78
2021/09/18 11:10:09;;;;;;;26.20;21.00;;;;;;;24.42;68.71;99739.81;4929315;29;20036;-76
2021/09/18 11:12:37;;;;;;;27.27;21.77;;;;;;;24.00;70.46;99736.56;4915911;29;20376;-79
2021/09/18 11:15:12;;;;;;;34.45;19.00;;;;;;;24.14;69.68;99739.50;4908966;29;20048;-78
2021/09/18 11:17:43;;;;;;;25.23;17.58;;;;;;;24.21;70.51;99727.94;4909354;29;20128;-81
2021/09/18 11:20:15;;;;;;;21.27;18.58;;;;;;;23.90;71.01;99733.31;4912723;29;20044;-78
2021/09/18 11:22:42;;;;;;;23.83;16.73;;;;;;;23.93;70.77;99724.97;4908610;29;20553;-81
2021/09/18 11:25:46;;;;;;;22.13;16.23;;;;;;;23.97;69.48;99720.09;4910244;29;20060;-78
2021/09/18 11:28:14;;;;;;;23.40;15.77;;;;;;;25.01;65.08;99719.47;4843449;29;20049;-80
2021/09/18 11:30:45;;;;;;;25.42;20.17;;;;;;;24.66;66.42;99722.78;4903699;29;20052;-79
2021/09/18 11:33:16;;;;;;;30.60;17.25;;;;;;;25.45;63.52;99710.66;4908900;29;20036;-79